Time;durP1;ratioP1;P1;durP2;ratioP2;P2;SDS_P1;SDS_P2;PMS_P1;PMS_P2;Temp;Humidity;BMP_temperature;BMP_pressure;BME280_temperature;BME280_humidity;BME280_pressure;Samples;Min_cycle;Max_cycle;Signal;HPM_P1;HPM_P2
2023/12/11 00:00:05;;;;;;;17.08;9.90;;;6.70;99.90;;;;;;5057830;28;20033;-52
2023/12/11 00:02:32;;;;;;;20.15;9.90;;;6.80;99.90;;;;;;5027834;28;20079;-56
2023/12/11 00:04:57;;;;;;;15.10;9.50;;;6.70;99.90;;;;;;5057776;28;20025;-51
2023/12/11 00:07:24;;;;;;;18.15;9.65;;;6.70;99.90;;;;;;5022287;28;20404;-55
2023/12/11 00:09:50;;;;;;;33.25;17.98;;;6.60;99.90;;;;;;5057807;28;20025;-53
2023/12/11 00:12:16;;;;;;;107.97;44.22;;;;;;;;;;5057839;28;20461;-54
2023/12/11 00:14:42;;;;;;;53.05;25.20;;;6.30;99.90;;;;;;5057879;28;20033;-53
2023/12/11 00:17:09;;;;;;;76.28;35.35;;;5.80;99.90;;;;;;5057663;28;20370;-55
2023/12/11 00:19:35;;;;;;;55.13;26.77;;;5.80;99.90;;;;;;5058079;28;20064;-52
2023/12/11 00:22:01;;;;;;;21.73;10.43;;;5.70;99.90;;;;;;5056464;28;20075;-52
2023/12/11 00:24:27;;;;;;;15.43;8.25;;;5.30;99.90;;;;;;5056314;28;20078;-56
2023/12/11 00:26:52;;;;;;;15.98;7.82;;;5.10;99.90;;;;;;5057512;28;20029;-55
2023/12/11 00:29:18;;;;;;;15.75;8.15;;;5.00;99.90;;;;;;5053685;28;20032;-53
2023/12/11 00:31:44;;;;;;;17.35;7.95;;;4.90;99.90;;;;;;5054401;28;20057;-55
2023/12/11 00:34:10;;;;;;;13.98;6.35;;;5.00;99.90;;;;;;5054336;28;20037;-52
2023/12/11 00:36:35;;;;;;;55.25;23.33;;;5.00;99.90;;;;;;5054331;28;20078;-52
2023/12/11 00:39:03;;;;;;;85.35;32.70;;;5.20;99.90;;;;;;5035399;28;20041;-52
2023/12/11 00:41:29;;;;;;;16.38;10.45;;;5.20;99.90;;;;;;5054623;28;20532;-55
2023/12/11 00:43:55;;;;;;;14.90;8.30;;;5.10;99.90;;;;;;5054529;28;20100;-53
2023/12/11 00:46:21;;;;;;;10.68;5.63;;;;;;;;;;5018818;28;20041;-52
2023/12/11 00:48:48;;;;;;;12.45;5.65;;;4.70;99.90;;;;;;5019008;28;20045;-57
2023/12/11 00:51:17;;;;;;;9.80;5.63;;;4.60;99.90;;;;;;5054093;28;20024;-51
2023/12/11 00:53:45;;;;;;;11.52;5.90;;;4.50;99.90;;;;;;5054047;28;20508;-53
2023/12/11 00:56:11;;;;;;;14.32;8.07;;;4.40;99.90;;;;;;5053693;28;20480;-54
2023/12/11 00:58:36;;;;;;;15.65;8.35;;;4.30;99.90;;;;;;5053960;28;20025;-54
2023/12/11 01:01:02;;;;;;;14.23;8.32;;;4.30;99.90;;;;;;5054005;28;20036;-56
2023/12/11 01:03:28;;;;;;;16.30;7.90;;;4.20;99.90;;;;;;5035977;28;20028;-54
2023/12/11 01:05:54;;;;;;;15.93;8.70;;;;;;;;;;5053401;28;20388;-53
2023/12/11 01:08:20;;;;;;;15.40;8.77;;;4.20;99.90;;;;;;5054086;28;20029;-50
2023/12/11 01:10:46;;;;;;;15.00;7.55;;;;;;;;;;5053769;28;20033;-53
2023/12/11 01:15:57;;;;;;;14.75;8.05;;;;;;;;;;5053872;28;20499;-54
2023/12/11 01:18:24;;;;;;;13.48;7.55;;;;;;;;;;5053243;28;20443;-53
2023/12/11 01:20:50;;;;;;;14.43;8.18;;;;;;;;;;5018197;28;20033;-52
2023/12/11 01:23:16;;;;;;;37.10;17.15;;;;;;;;;;5053521;28;20029;-53
2023/12/11 01:25:42;;;;;;;13.88;6.75;;;4.00;99.90;;;;;;5053376;28;20029;-53
2023/12/11 01:28:08;;;;;;;11.90;5.60;;;3.80;99.90;;;;;;5053774;28;20025;-55
2023/12/11 01:30:34;;;;;;;12.75;5.85;;;3.70;99.90;;;;;;5053149;28;20532;-53
2023/12/11 01:32:59;;;;;;;19.75;7.95;;;3.50;99.90;;;;;;5017692;28;20056;-54
2023/12/11 01:35:25;;;;;;;15.77;7.60;;;3.50;99.90;;;;;;5053740;28;20025;-54
2023/12/11 01:37:51;;;;;;;14.73;7.70;;;3.30;99.90;;;;;;5053496;28;20033;-53
2023/12/11 01:40:17;;;;;;;21.85;10.75;;;3.40;99.90;;;;;;5017901;28;20040;-55
2023/12/11 01:42:42;;;;;;;18.05;9.70;;;3.50;99.90;;;;;;5052281;28;20029;-54
2023/12/11 01:45:09;;;;;;;22.30;9.73;;;3.60;99.90;;;;;;5053404;28;20044;-54
2023/12/11 01:47:34;;;;;;;18.50;8.13;;;3.70;99.90;;;;;;5001310;28;20397;-55
2023/12/11 01:50:00;;;;;;;13.68;6.63;;;3.80;99.90;;;;;;5053008;28;20025;-55
2023/12/11 01:52:27;;;;;;;12.07;5.07;;;3.80;99.90;;;;;;5001435;28;20183;-51
2023/12/11 01:54:53;;;;;;;12.48;5.70;;;3.80;99.90;;;;;;5053031;28;20041;-52
2023/12/11 01:57:19;;;;;;;11.77;4.47;;;3.70;99.90;;;;;;5017669;28;20209;-55
2023/12/11 01:59:45;;;;;;;14.93;6.57;;;3.70;99.90;;;;;;5052774;28;20079;-53
2023/12/11 02:02:12;;;;;;;16.48;8.18;;;3.60;99.90;;;;;;5052907;28;20059;-52
2023/12/11 02:04:38;;;;;;;13.50;7.25;;;3.50;99.90;;;;;;5052654;28;20111;-53
2023/12/11 02:07:04;;;;;;;15.45;6.28;;;3.60;99.90;;;;;;5017694;28;20037;-53
2023/12/11 02:09:30;;;;;;;14.10;8.20;;;3.70;99.90;;;;;;5001580;28;20040;-53
2023/12/11 02:11:57;;;;;;;23.02;11.90;;;;;;;;;;5052719;28;20025;-54
2023/12/11 02:14:23;;;;;;;23.90;12.02;;;3.70;99.90;;;;;;5033835;28;20065;-53
2023/12/11 02:16:49;;;;;;;31.40;15.25;;;3.90;99.90;;;;;;5010180;28;20489;-56
2023/12/11 02:19:15;;;;;;;17.33;8.38;;;4.10;99.90;;;;;;4993774;28;20061;-55
2023/12/11 02:21:41;;;;;;;11.05;6.25;;;4.20;99.90;;;;;;4993759;28;20489;-56
2023/12/11 02:24:12;;;;;;;14.68;5.68;;;4.10;99.90;;;;;;5010427;28;20065;-51
2023/12/11 02:26:38;;;;;;;13.93;5.38;;;4.00;99.90;;;;;;5010375;28;20049;-52
2023/12/11 02:29:04;;;;;;;13.95;5.35;;;4.00;99.90;;;;;;5010178;28;20429;-52
2023/12/11 02:31:30;;;;;;;14.27;8.07;;;;;;;;;;5010144;28;20094;-52
2023/12/11 02:33:56;;;;;;;18.52;11.57;;;;;;;;;;5010181;28;20429;-50
2023/12/11 02:36:22;;;;;;;19.65;11.52;;;;;;;;;;5010211;28;20100;-50
2023/12/11 02:38:48;;;;;;;13.15;7.72;;;;;;;;;;4993627;28;20041;-50
2023/12/11 02:41:14;;;;;;;19.27;9.70;;;;;;;;;;5009361;28;20068;-49
2023/12/11 02:43:40;;;;;;;15.15;9.18;;;;;;;;;;4977615;28;20036;-52
2023/12/11 02:46:06;;;;;;;11.75;8.20;;;;;;;;;;5010046;28;20121;-53
2023/12/11 02:48:33;;;;;;;16.50;7.60;;;;;;;;;;5025813;28;20052;-54
2023/12/11 02:50:59;;;;;;;22.45;9.98;;;;;;;;;;5000354;28;20086;-56
2023/12/11 02:53:25;;;;;;;15.52;8.95;;;;;;;;;;5051364;28;20560;-55
2023/12/11 02:55:50;;;;;;;14.80;6.60;;;4.50;99.90;;;;;;5051793;28;20530;-54
2023/12/11 02:58:16;;;;;;;14.70;5.55;;;4.30;99.90;;;;;;5052161;28;20032;-55
2023/12/11 03:00:42;;;;;;;11.88;6.45;;;;;;;;;;5052001;28;20024;-55
2023/12/11 03:03:09;;;;;;;12.50;7.18;;;4.20;99.90;;;;;;5051999;28;20040;-55
2023/12/11 03:05:34;;;;;;;13.10;8.43;;;4.00;99.90;;;;;;5052071;28;20036;-56
2023/12/11 03:08:04;;;;;;;14.07;8.13;;;3.90;99.90;;;;;;5016495;28;20110;-52
2023/12/11 03:10:31;;;;;;;14.98;9.45;;;4.10;99.90;;;;;;5029261;28;20041;-56
2023/12/11 03:12:57;;;;;;;12.65;7.32;;;4.20;99.90;;;;;;5029146;28;20053;-53
2023/12/11 03:15:23;;;;;;;15.57;8.23;;;;;;;;;;5029394;28;20401;-53
2023/12/11 03:17:48;;;;;;;14.18;8.60;;;4.20;99.90;;;;;;5029311;28;20167;-55
2023/12/11 03:20:15;;;;;;;15.77;7.88;;;4.10;99.90;;;;;;5029129;28;20120;-53
2023/12/11 03:22:41;;;;;;;14.65;7.65;;;4.00;99.90;;;;;;5029406;28;20025;-54
2023/12/11 03:25:07;;;;;;;20.70;9.70;;;3.80;99.90;;;;;;5029229;28;20037;-52
2023/12/11 03:27:33;;;;;;;18.00;9.52;;;;;;;;;;5029170;28;20029;-54
2023/12/11 03:29:58;;;;;;;17.52;9.48;;;4.10;99.90;;;;;;5012574;28;20120;-56
2023/12/11 03:32:24;;;;;;;17.67;9.25;;;;;;;;;;5029062;28;20524;-54
2023/12/11 03:34:51;;;;;;;18.15;8.45;;;;;;;;;;4996159;28;20052;-55
2023/12/11 03:37:17;;;;;;;21.48;10.93;;;;;;;;;;5029080;28;20038;-52
2023/12/11 03:39:43;;;;;;;21.50;11.00;;;;;;;;;;5029219;28;20034;-52
2023/12/11 03:42:09;;;;;;;25.30;14.25;;;;;;;;;;5028060;28;20564;-51
2023/12/11 03:44:35;;;;;;;16.52;8.68;;;;;;;;;;5051320;28;20469;-56
2023/12/11 03:47:01;;;;;;;12.63;6.95;;;;;;;;;;5051245;28;20044;-53
2023/12/11 03:49:27;;;;;;;12.57;7.20;;;3.90;99.90;;;;;;5051658;28;20021;-52
2023/12/11 03:51:53;;;;;;;11.98;6.68;;;3.80;99.90;;;;;;5051218;28;20079;-52
2023/12/11 03:54:19;;;;;;;13.27;9.50;;;3.80;99.90;;;;;;5051062;28;20037;-54
2023/12/11 03:56:45;;;;;;;16.85;10.25;;;3.50;99.90;;;;;;5051294;28;20431;-53
2023/12/11 03:59:14;;;;;;;15.45;9.52;;;3.40;99.90;;;;;;5032425;28;20033;-55
2023/12/11 04:01:40;;;;;;;13.63;8.52;;;3.30;99.90;;;;;;5016940;28;20041;-54
2023/12/11 04:04:05;;;;;;;22.58;12.25;;;3.20;99.90;;;;;;5016258;28;20095;-52
2023/12/11 04:06:31;;;;;;;19.52;10.40;;;3.30;99.90;;;;;;5036264;28;20044;-55
2023/12/11 04:08:57;;;;;;;16.42;10.35;;;;;;;;;;5054867;28;20380;-55
2023/12/11 04:11:23;;;;;;;17.80;10.05;;;3.10;99.90;;;;;;5054754;28;20075;-54
2023/12/11 04:13:49;;;;;;;20.77;12.82;;;3.10;99.90;;;;;;5054796;28;20412;-52
2023/12/11 04:16:15;;;;;;;23.10;14.13;;;3.00;99.90;;;;;;5035952;28;20037;-54
2023/12/11 04:18:41;;;;;;;29.65;18.10;;;3.00;99.90;;;;;;5054951;28;20358;-53
2023/12/11 04:21:07;;;;;;;35.22;25.38;;;;;;;;;;5054741;28;20029;-52
2023/12/11 04:23:33;;;;;;;26.13;19.20;;;3.30;99.90;;;;;;5052511;28;20044;-55
2023/12/11 04:25:59;;;;;;;72.32;31.30;;;3.20;99.90;;;;;;5054569;28;20060;-54
2023/12/11 04:28:28;;;;;;;52.95;26.10;;;3.30;99.90;;;;;;5054490;28;20064;-55
2023/12/11 04:30:54;;;;;;;32.85;18.67;;;3.60;99.90;;;;;;5054766;28;20032;-54
2023/12/11 04:33:21;;;;;;;22.75;13.25;;;;;;;;;;5035256;28;20045;-53
2023/12/11 04:35:47;;;;;;;18.40;11.25;;;;;;;;;;5054389;28;20028;-52
2023/12/11 04:38:13;;;;;;;18.13;9.80;;;4.60;99.90;;;;;;5054231;28;20040;-55
2023/12/11 04:40:39;;;;;;;17.15;9.88;;;4.40;99.90;;;;;;5054806;28;20025;-53
2023/12/11 04:43:05;;;;;;;22.42;14.35;;;4.50;99.90;;;;;;5054285;28;20071;-52
2023/12/11 04:45:31;;;;;;;25.80;16.35;;;4.70;99.90;;;;;;5054310;28;20048;-54
2023/12/11 04:47:56;;;;;;;20.27;12.48;;;4.60;99.90;;;;;;5054395;28;20512;-54
2023/12/11 04:50:23;;;;;;;20.27;12.27;;;;;;;;;;5054258;28;20017;-53
2023/12/11 04:52:49;;;;;;;21.98;13.30;;;4.00;99.90;;;;;;5054029;28;20082;-51
2023/12/11 04:55:14;;;;;;;24.00;15.88;;;3.70;99.90;;;;;;5054398;28;20045;-53
2023/12/11 04:57:40;;;;;;;32.13;18.48;;;3.60;99.90;;;;;;5054331;28;20529;-52
2023/12/11 05:00:07;;;;;;;32.72;21.45;;;3.30;99.90;;;;;;5053907;28;20040;-52
2023/12/11 05:02:33;;;;;;;34.15;22.42;;;3.30;99.90;;;;;;5018303;28;20564;-54
2023/12/11 05:04:58;;;;;;;38.10;24.08;;;3.30;99.90;;;;;;5054080;28;20021;-55
2023/12/11 05:07:24;;;;;;;38.47;23.50;;;;;;;;;;5053793;28;20033;-51
2023/12/11 05:09:50;;;;;;;37.88;23.92;;;3.40;99.90;;;;;;5051768;28;20047;-56
2023/12/11 05:12:16;;;;;;;38.00;22.83;;;3.30;99.90;;;;;;5053893;28;20025;-53
2023/12/11 05:14:42;;;;;;;35.78;24.92;;;3.20;99.90;;;;;;5051231;28;20107;-52
2023/12/11 05:17:07;;;;;;;33.17;23.25;;;3.10;99.90;;;;;;5053506;28;20032;-54
2023/12/11 05:19:35;;;;;;;30.00;21.02;;;3.10;99.90;;;;;;5053617;28;20366;-51
2023/12/11 05:22:01;;;;;;;34.30;23.00;;;3.10;99.90;;;;;;5051405;28;20040;-52
2023/12/11 05:24:27;;;;;;;35.72;22.58;;;3.00;99.90;;;;;;5051345;28;20040;-52
2023/12/11 05:26:56;;;;;;;39.05;25.50;;;2.90;99.90;;;;;;5034723;28;20094;-55
2023/12/11 05:29:22;;;;;;;32.65;23.17;;;3.10;99.90;;;;;;5044724;28;20116;-53
2023/12/11 05:31:47;;;;;;;34.10;22.73;;;3.10;99.90;;;;;;5034109;28;20092;-52
2023/12/11 05:34:13;;;;;;;29.33;22.52;;;3.00;99.90;;;;;;5033925;28;20044;-53
2023/12/11 05:36:39;;;;;;;30.65;22.15;;;3.10;99.90;;;;;;5034640;28;20034;-54
2023/12/11 05:39:06;;;;;;;36.58;25.77;;;3.10;99.90;;;;;;5007401;28;20082;-54
2023/12/11 05:41:33;;;;;;;34.33;26.13;;;3.10;99.90;;;;;;5054308;28;20028;-54
2023/12/11 05:43:59;;;;;;;32.45;23.83;;;3.10;99.90;;;;;;5053771;28;20024;-54
2023/12/11 05:46:25;;;;;;;29.65;22.75;;;3.30;99.90;;;;;;5034782;28;20404;-55
2023/12/11 05:48:51;;;;;;;30.52;21.83;;;3.60;99.90;;;;;;5052992;28;20384;-55
2023/12/11 05:51:16;;;;;;;35.10;21.73;;;3.40;99.90;;;;;;5053025;28;20033;-53
2023/12/11 05:53:42;;;;;;;31.67;21.73;;;3.30;99.90;;;;;;5017457;28;20040;-53
2023/12/11 05:56:08;;;;;;;30.45;21.77;;;3.30;99.90;;;;;;5052870;28;20443;-52
2023/12/11 05:58:34;;;;;;;31.33;20.90;;;3.40;99.90;;;;;;5052951;28;20488;-52
2023/12/11 06:01:00;;;;;;;26.17;18.10;;;3.30;99.90;;;;;;5052766;28;20033;-54
2023/12/11 06:03:25;;;;;;;26.40;17.40;;;3.30;99.90;;;;;;5053282;28;20044;-52
2023/12/11 06:05:57;;;;;;;23.15;15.80;;;3.50;99.90;;;;;;5052484;28;20112;-52
2023/12/11 06:08:24;;;;;;;;;;;3.50;99.90;;;;;;5035506;28;20475;-53
2023/12/11 06:10:50;;;;;;;20.38;16.02;;;;;;;;;;5052574;28;19943;-52
2023/12/11 06:13:16;;;;;;;22.65;17.08;;;3.40;99.90;;;;;;5052155;28;20029;-52
2023/12/11 06:15:42;;;;;;;20.80;15.50;;;3.40;99.90;;;;;;5034696;28;20037;-55
2023/12/11 06:18:08;;;;;;;23.58;17.15;;;3.40;99.90;;;;;;5034840;28;20081;-53
2023/12/11 06:20:34;;;;;;;22.45;16.17;;;3.60;99.90;;;;;;5000865;28;20029;-54
2023/12/11 06:22:59;;;;;;;21.73;15.82;;;3.90;99.90;;;;;;5052326;28;20078;-53
2023/12/11 06:25:25;;;;;;;20.02;14.57;;;4.20;99.90;;;;;;5052434;28;20020;-55
2023/12/11 06:27:51;;;;;;;19.92;15.75;;;4.20;99.90;;;;;;5051434;28;20036;-53
2023/12/11 06:30:17;;;;;;;21.45;16.77;;;4.00;99.90;;;;;;5029280;28;20034;-54
2023/12/11 06:32:43;;;;;;;22.30;17.48;;;3.80;99.90;;;;;;5029584;28;20049;-52
2023/12/11 06:35:10;;;;;;;22.27;17.17;;;;;;;;;;5013065;28;20064;-54
2023/12/11 06:37:36;;;;;;;21.33;18.05;;;4.20;99.90;;;;;;5028679;28;20034;-52
2023/12/11 06:40:03;;;;;;;20.00;14.93;;;4.50;99.90;;;;;;5029245;28;20044;-55
2023/12/11 06:42:34;;;;;;;20.95;14.55;;;;;;;;;;5013319;28;20040;-54
2023/12/11 06:45:00;;;;;;;18.73;14.70;;;5.40;99.90;;;;;;5028068;28;20497;-54
2023/12/11 06:47:26;;;;;;;54.10;38.08;;;6.90;99.90;;;;;;5029093;28;20076;-53
2023/12/11 06:49:52;;;;;;;74.57;49.70;;;;;;;;;;5029466;28;20037;-53
2023/12/11 06:52:18;;;;;;;39.80;33.75;;;;;;;;;;5029649;28;20041;-54
2023/12/11 06:54:44;;;;;;;26.33;22.55;;;11.10;99.90;;;;;;5014474;28;20045;-54
2023/12/11 06:57:11;;;;;;;21.75;15.43;;;;;;;;;;5028046;28;20387;-51
2023/12/11 06:59:37;;;;;;;21.60;16.55;;;;;;;;;;5029748;28;20037;-55
2023/12/11 07:02:04;;;;;;;22.48;15.02;;;8.20;99.90;;;;;;4981595;28;20037;-51
2023/12/11 07:04:30;;;;;;;21.63;15.48;;;7.80;99.90;;;;;;5029443;28;20026;-55
2023/12/11 07:06:55;;;;;;;48.03;29.33;;;6.70;99.90;;;;;;4984051;28;20470;-55
2023/12/11 07:09:21;;;;;;;37.50;26.90;;;6.10;99.90;;;;;;5008550;28;20043;-54
2023/12/11 07:11:47;;;;;;;22.60;16.50;;;5.80;99.90;;;;;;5045853;28;20060;-55
2023/12/11 07:14:13;;;;;;;19.45;14.93;;;;;;;;;;4982338;28;20388;-55
2023/12/11 07:16:39;;;;;;;16.23;12.88;;;;;;;;;;5042878;28;20028;-55
2023/12/11 07:19:05;;;;;;;16.25;11.90;;;9.70;99.90;;;;;;5047422;28;20028;-52
2023/12/11 07:21:31;;;;;;;16.80;10.40;;;11.10;99.90;;;;;;5047404;28;20025;-51
2023/12/11 07:23:57;;;;;;;15.38;10.82;;;12.70;99.90;;;;;;5021221;28;20509;-55
2023/12/11 07:26:22;;;;;;;12.63;8.48;;;13.20;99.90;;;;;;5041383;28;20025;-54
2023/12/11 07:28:48;;;;;;;14.15;8.75;;;13.60;96.90;;;;;;5041373;28;20025;-55
2023/12/11 07:31:15;;;;;;;15.57;11.18;;;;;;;;;;5036805;28;20117;-53
2023/12/11 07:33:41;;;;;;;15.45;12.05;;;13.20;97.30;;;;;;5034601;28;20689;-53
2023/12/11 07:36:07;;;;;;;15.85;11.40;;;15.10;98.20;;;;;;5051280;28;20025;-52
2023/12/11 07:38:33;;;;;;;16.25;10.98;;;15.10;99.90;;;;;;5012347;28;20106;-52
2023/12/11 07:40:58;;;;;;;18.80;13.45;;;12.00;96.10;;;;;;5019276;28;20488;-52
2023/12/11 07:43:25;;;;;;;26.08;16.15;;;;;;;;;;5019472;28;20064;-54
2023/12/11 07:45:51;;;;;;;22.75;14.43;;;;;;;;;;5055331;28;20044;-52
2023/12/11 07:48:17;;;;;;;14.68;7.90;;;9.20;99.90;;;;;;5055606;28;20029;-51
2023/12/11 07:50:43;;;;;;;8.80;7.13;;;8.20;99.90;;;;;;5053919;28;20036;-51
2023/12/11 07:53:09;;;;;;;12.43;8.90;;;;;;;;;;5037873;28;20116;-53
2023/12/11 07:55:35;;;;;;;11.90;7.40;;;;;;;;;;5047021;28;20549;-52
2023/12/11 07:58:03;;;;;;;9.88;5.35;;;7.60;99.90;;;;;;5040574;28;20117;-51
2023/12/11 08:00:29;;;;;;;9.80;6.35;;;7.50;99.90;;;;;;5035175;28;20030;-54
2023/12/11 08:02:54;;;;;;;12.35;6.18;;;7.20;99.90;;;;;;5032940;28;20041;-53
2023/12/11 08:05:21;;;;;;;14.50;10.07;;;;;;;;;;5035445;28;20083;-55
2023/12/11 08:07:47;;;;;;;16.55;9.65;;;;;;;;;;5016347;28;20555;-50
2023/12/11 08:10:13;;;;;;;12.15;7.85;;;;;;;;;;5034963;28;20425;-52
2023/12/11 08:12:39;;;;;;;13.90;7.53;;;6.70;99.90;;;;;;5032935;28;20038;-52
2023/12/11 08:15:05;;;;;;;13.18;8.02;;;6.50;99.90;;;;;;5036044;28;20080;-52
2023/12/11 08:17:31;;;;;;;11.38;7.97;;;6.30;99.90;;;;;;4996104;28;20041;-53
2023/12/11 08:19:57;;;;;;;13.65;6.85;;;6.30;99.90;;;;;;5045080;28;20060;-53
2023/12/11 08:22:23;;;;;;;15.23;7.43;;;6.30;99.90;;;;;;5021334;28;20061;-53
2023/12/11 08:24:48;;;;;;;17.90;7.47;;;6.50;99.90;;;;;;4979875;28;20041;-53
2023/12/11 08:27:14;;;;;;;15.20;8.48;;;6.50;99.90;;;;;;5045260;28;20033;-54
2023/12/11 08:29:40;;;;;;;19.02;10.85;;;6.20;99.90;;;;;;5044550;28;20087;-52
2023/12/11 08:32:06;;;;;;;15.70;10.27;;;6.00;99.90;;;;;;5044108;28;20118;-55
2023/12/11 08:34:32;;;;;;;17.48;10.98;;;6.30;99.90;;;;;;5012169;28;20460;-54
2023/12/11 08:36:58;;;;;;;18.75;10.13;;;6.50;99.90;;;;;;5028069;28;20041;-52
2023/12/11 08:39:24;;;;;;;16.45;9.80;;;6.60;99.90;;;;;;5010851;28;20041;-51
2023/12/11 08:41:50;;;;;;;14.43;8.15;;;6.70;99.90;;;;;;5043897;28;20036;-55
2023/12/11 08:44:16;;;;;;;15.45;9.77;;;6.60;99.90;;;;;;5053070;28;20025;-53
2023/12/11 08:46:43;;;;;;;18.30;10.88;;;6.50;99.90;;;;;;5047861;28;20029;-54
2023/12/11 08:49:09;;;;;;;20.55;13.10;;;6.60;99.90;;;;;;5040295;28;20052;-53
2023/12/11 08:51:35;;;;;;;15.10;11.95;;;;;;;;;;5038259;28;20461;-53
2023/12/11 08:54:02;;;;;;;13.38;8.90;;;;;;;;;;5041374;28;20124;-51
2023/12/11 08:56:27;;;;;;;21.08;15.20;;;12.20;99.90;;;;;;5034002;28;20033;-54
2023/12/11 08:58:53;;;;;;;24.30;13.65;;;12.60;99.90;;;;;;5035079;28;20026;-54
2023/12/11 09:01:19;;;;;;;22.95;14.15;;;;;;;;;;5026279;28;20039;-52
2023/12/11 09:03:45;;;;;;;23.08;13.35;;;10.50;99.90;;;;;;5043762;28;20032;-54
2023/12/11 09:06:13;;;;;;;16.13;9.65;;;10.10;99.90;;;;;;5048143;28;20037;-53
2023/12/11 09:08:39;;;;;;;11.05;7.50;;;;;;;;;;5052903;28;20061;-54
2023/12/11 09:11:05;;;;;;;18.15;10.85;;;9.60;99.90;;;;;;5032519;28;20087;-52
2023/12/11 09:13:31;;;;;;;16.95;10.93;;;9.00;99.90;;;;;;5049850;28;20496;-55
2023/12/11 09:15:57;;;;;;;17.67;12.13;;;8.30;99.90;;;;;;5044047;28;20082;-51
2023/12/11 09:18:23;;;;;;;18.85;11.30;;;8.20;99.90;;;;;;5047589;28;20045;-53
2023/12/11 09:20:49;;;;;;;16.08;9.32;;;7.90;99.90;;;;;;5042413;28;20029;-53
2023/12/11 09:23:15;;;;;;;18.33;9.88;;;8.00;99.90;;;;;;5042467;28;20035;-53
2023/12/11 09:25:41;;;;;;;20.42;12.38;;;;;;;;;;5043325;28;20017;-53
2023/12/11 09:28:07;;;;;;;13.65;8.88;;;11.70;99.90;;;;;;5040942;28;20037;-54
2023/12/11 09:30:33;;;;;;;13.43;9.57;;;13.40;99.90;;;;;;5053367;28;20445;-52
2023/12/11 09:32:59;;;;;;;13.77;8.40;;;;;;;;;;5048799;28;20056;-54
2023/12/11 09:35:25;;;;;;;14.63;7.53;;;;;;;;;;5041606;28;20037;-54
2023/12/11 09:37:51;;;;;;;12.93;10.50;;;;;;;;;;5009286;28;20048;-55
2023/12/11 09:40:18;;;;;;;16.13;12.50;;;;;;;;;;5045168;28;20893;-54
2023/12/11 09:42:45;;;;;;;18.17;14.13;;;;;;;;;;5030420;28;20508;-55
2023/12/11 09:45:12;;;;;;;19.52;13.35;;;;;;;;;;5045524;28;20030;-55
2023/12/11 10:28:08;;;;;;;15.00;8.88;;;24.00;93.20;;;;;;5072127;27;1597525;-52
2023/12/11 10:30:41;;;;;;;11.57;8.63;;;;;;;;;;5118311;28;20046;-50
2023/12/11 10:33:09;;;;;;;12.15;10.20;;;;;;;;;;5118181;27;20035;-52
2023/12/11 10:35:35;;;;;;;13.30;11.50;;;24.30;79.40;;;;;;5120566;27;20114;-52
2023/12/11 10:38:02;;;;;;;15.77;12.65;;;;;;;;;;5119288;28;20106;-52
2023/12/11 10:40:41;;;;;;;15.07;11.45;;;23.70;94.30;;;;;;5117908;28;20539;-51
2023/12/11 10:43:07;;;;;;;19.42;14.65;;;24.90;79.00;;;;;;5119978;28;20043;-52
2023/12/11 10:45:33;;;;;;;23.70;19.85;;;24.10;79.00;;;;;;5101590;28;20034;-52
2023/12/11 10:48:00;;;;;;;24.05;16.90;;;23.00;79.30;;;;;;5117891;27;20496;-50
2023/12/11 10:50:27;;;;;;;17.17;12.38;;;22.80;80.90;;;;;;5092842;28;20044;-49
2023/12/11 10:52:53;;;;;;;18.35;12.15;;;22.70;80.30;;;;;;5109298;28;20048;-55
2023/12/11 10:55:19;;;;;;;15.00;11.07;;;22.00;80.50;;;;;;5109391;28;20028;-52
2023/12/11 10:57:46;;;;;;;17.25;13.98;;;20.90;81.40;;;;;;5109221;28;20054;-53
2023/12/11 11:00:14;;;;;;;17.13;14.65;;;21.00;82.00;;;;;;5109307;28;20106;-51
2023/12/11 11:02:52;;;;;;;17.42;15.18;;;21.40;82.20;;;;;;5109319;28;20024;-52
2023/12/11 11:05:19;;;;;;;25.50;19.67;;;;;;;;;;5109318;28;20081;-50
2023/12/11 11:07:51;;;;;;;25.80;18.13;;;;;;;;;;5105067;28;20059;-54
2023/12/11 11:10:21;;;;;;;24.70;19.25;;;;;;;;;;5109019;28;20024;-51
2023/12/11 11:12:47;;;;;;;22.05;17.75;;;;;;;;;;5109036;28;20061;-51
2023/12/11 11:15:23;;;;;;;20.10;16.38;;;22.20;79.70;;;;;;5108926;28;20476;-49
2023/12/11 11:18:01;;;;;;;22.98;15.73;;;22.10;79.80;;;;;;5108794;28;20020;-52
2023/12/11 11:20:32;;;;;;;20.95;15.40;;;22.00;79.80;;;;;;5108360;28;20027;-51
2023/12/11 11:23:16;;;;;;;16.90;12.88;;;21.70;79.60;;;;;;5123558;28;20035;-53
2023/12/11 11:25:52;;;;;;;17.85;14.15;;;21.20;80.20;;;;;;5128913;28;20035;-50
2023/12/11 11:28:42;;;;;;;16.30;11.60;;;20.20;80.50;;;;;;5113619;28;20134;-52
2023/12/11 11:31:09;;;;;;;14.85;12.07;;;19.00;82.10;;;;;;5116579;28;20474;-54
2023/12/11 11:33:50;;;;;;;17.38;13.40;;;19.10;84.30;;;;;;5126876;28;20035;-52
2023/12/11 11:36:17;;;;;;;16.20;12.38;;;;;;;;;;5120447;28;20031;-52
2023/12/11 11:38:55;;;;;;;15.50;11.55;;;20.30;93.90;;;;;;5079186;28;20027;-55
2023/12/11 11:41:23;;;;;;;16.42;13.25;;;20.40;83.90;;;;;;5115129;28;20467;-53
2023/12/11 11:44:08;;;;;;;12.55;11.25;;;20.50;83.30;;;;;;5115496;28;20031;-55
2023/12/11 11:46:54;;;;;;;21.35;13.13;;;20.40;83.40;;;;;;5115035;28;20466;-50
2023/12/11 11:49:36;;;;;;;17.67;13.02;;;21.50;84.10;;;;;;5115278;28;20054;-55
2023/12/11 11:52:07;;;;;;;20.30;13.52;;;21.20;83.20;;;;;;5115104;28;20428;-52
2023/12/11 11:54:36;;;;;;;21.75;13.23;;;21.60;83.30;;;;;;5115143;28;20509;-53
2023/12/11 11:57:02;;;;;;;22.92;16.83;;;22.10;83.80;;;;;;5114737;28;20035;-52
2023/12/11 11:59:28;;;;;;;14.70;10.15;;;21.70;83.00;;;;;;5115202;28;20080;-54
2023/12/11 12:01:55;;;;;;;25.38;16.88;;;22.20;83.10;;;;;;5114893;28;20077;-53
2023/12/11 12:04:33;;;;;;;14.57;8.20;;;22.10;82.80;;;;;;5114605;28;20028;-51
2023/12/11 12:07:03;;;;;;;18.50;9.52;;;22.20;82.60;;;;;;5114728;28;20046;-53
2023/12/11 12:09:33;;;;;;;17.10;10.48;;;22.10;82.70;;;;;;5114783;28;20454;-50
2023/12/11 12:12:00;;;;;;;11.60;8.55;;;22.00;82.40;;;;;;5113382;28;20054;-50
2023/12/11 12:14:26;;;;;;;16.20;9.18;;;21.70;82.70;;;;;;5114492;28;20028;-52
2023/12/11 12:16:53;;;;;;;17.83;9.57;;;21.60;82.40;;;;;;5078500;28;20027;-51
2023/12/11 12:19:32;;;;;;;15.55;9.40;;;21.50;82.60;;;;;;5114738;28;20027;-51
2023/12/11 12:21:58;;;;;;;11.65;9.20;;;21.00;82.90;;;;;;5114418;28;20020;-55
2023/12/11 12:24:25;;;;;;;12.77;9.23;;;20.40;83.50;;;;;;5114338;28;20027;-54
2023/12/11 12:27:12;;;;;;;15.68;9.30;;;20.50;84.60;;;;;;5114086;28;20062;-54
2023/12/11 12:29:39;;;;;;;15.20;9.32;;;20.40;84.60;;;;;;5078186;28;20126;-52
2023/12/11 12:32:06;;;;;;;13.68;10.10;;;;;;;;;;5114260;28;20123;-54
2023/12/11 12:34:35;;;;;;;12.68;9.52;;;19.10;86.00;;;;;;5114243;28;20038;-53
2023/12/11 12:37:02;;;;;;;17.85;12.82;;;18.60;86.70;;;;;;5114011;28;20355;-52
2023/12/11 12:39:28;;;;;;;21.38;15.35;;;18.40;87.70;;;;;;5114048;28;20027;-54
2023/12/11 12:41:54;;;;;;;21.83;14.52;;;;;;;;;;5114037;28;20024;-55
2023/12/11 12:44:20;;;;;;;19.50;13.00;;;18.80;98.30;;;;;;5113912;28;20043;-54
2023/12/11 12:46:46;;;;;;;19.33;12.45;;;18.30;88.60;;;;;;5114150;28;20032;-54
2023/12/11 12:49:16;;;;;;;21.80;13.85;;;18.20;88.20;;;;;;5111473;28;20099;-54
2023/12/11 12:51:53;;;;;;;25.35;16.13;;;18.10;88.50;;;;;;5113725;28;20181;-51
2023/12/11 12:54:20;;;;;;;16.58;12.25;;;17.90;88.90;;;;;;5113790;28;20129;-53
2023/12/11 12:56:53;;;;;;;18.42;12.32;;;;;;;;;;5113843;28;20496;-53
2023/12/11 12:59:20;;;;;;;20.10;14.52;;;16.90;90.20;;;;;;5113621;28;20024;-55
2023/12/11 13:01:46;;;;;;;22.83;14.10;;;17.40;90.30;;;;;;5113737;28;20035;-50
2023/12/11 13:04:12;;;;;;;24.92;15.73;;;17.10;90.50;;;;;;5111855;28;20097;-53
2023/12/11 13:06:38;;;;;;;30.13;21.38;;;17.00;90.80;;;;;;5108806;28;20082;-53
2023/12/11 13:09:08;;;;;;;27.25;18.20;;;16.80;91.30;;;;;;5068439;28;20040;-50
2023/12/11 13:11:42;;;;;;;28.33;19.63;;;16.80;91.40;;;;;;5082700;28;20036;-51
2023/12/11 13:14:11;;;;;;;20.83;15.60;;;16.80;91.70;;;;;;5102366;28;21591;-52
2023/12/11 13:16:39;;;;;;;24.60;16.20;;;16.60;91.70;;;;;;5102052;28;20676;-53
2023/12/11 13:19:05;;;;;;;23.10;16.67;;;16.60;92.10;;;;;;5105965;28;20024;-53
2023/12/11 13:21:30;;;;;;;23.13;16.55;;;16.60;92.40;;;;;;5100905;28;20097;-50
2023/12/11 13:23:56;;;;;;;18.63;15.23;;;16.80;92.40;;;;;;5067733;28;20036;-55
2023/12/11 13:26:22;;;;;;;23.00;17.65;;;16.80;92.20;;;;;;5103786;28;20371;-54
2023/12/11 13:28:48;;;;;;;32.95;24.65;;;17.00;92.40;;;;;;5100279;28;20035;-56
2023/12/11 13:31:14;;;;;;;37.45;26.27;;;17.10;91.80;;;;;;5105517;28;20024;-54
2023/12/11 13:33:40;;;;;;;24.58;18.27;;;17.10;91.80;;;;;;5105655;28;20024;-60
2023/12/11 13:36:07;;;;;;;24.00;19.00;;;16.50;91.90;;;;;;5084000;28;20115;-53
2023/12/11 13:38:35;;;;;;;23.25;17.15;;;16.20;91.90;;;;;;5073464;28;20505;-53
2023/12/11 13:41:02;;;;;;;19.65;13.48;;;15.80;92.80;;;;;;5092687;28;20081;-53